Latest Weather Observations for Omeo

IDV60801

Issued at 9:32 am EDT Tuesday 24 October 2017 (issued every 30 minutes, with the page automatically refreshed every 10 minutes)

About weather observations | Map of weather stations | Latest weather observations for VIC | Other Formats
Station Details ID: 083090 Name: OMEO Lat: -37.10 Lon: 147.60 Height: 689.8 m
Data from the previous 72 hours. | See also: Recent months at Omeo
Date/Time
EDT
Temp
°C
App
Temp
°C
Dew
Point
°C
Rel
Hum
%
Delta-T
°C
Wind Press
QNH
hPa
Press
MSL
hPa
Rain since
9am
mm
Dir  Spd
km/h
Gust
km/h
Spd
kts
Gust
kts
24/09:30am 13.3 9.9 7.7 69 2.9 N 15 22 8 12 1018.4 1017.6 0.0
24/09:00am 12.0 9.1 8.1 77 2.0 NNW 13 19 7 10 1018.4 1017.6 0.0
24/08:30am 10.1 7.2 8.0 87 1.1 NNW 13 19 7 10 1018.5 1017.7 0.0
24/08:00am 9.1 5.8 7.9 92 0.6 N 15 19 8 10 1018.3 1017.5 0.0
24/07:30am 8.4 4.7 8.1 98 0.1 N 17 24 9 13 1018.1 1017.3 0.0
24/07:00am 8.0 4.7 7.9 99 0.0 N 15 20 8 11 1017.9 1017.2 0.0
24/06:30am 7.3 4.2 7.2 99 0.0 NNW 13 19 7 10 1017.7 1017.0 0.0
24/06:00am 7.1 3.9 7.0 99 0.0 NNW 13 17 7 9 1017.7 1017.0 0.0
24/05:30am 7.3 3.8 7.2 99 0.0 NNW 15 20 8 11 1017.5 1016.8 0.0
24/05:00am 7.0 3.1 6.9 99 0.0 NNW 17 20 9 11 1017.1 1016.3 0.0
24/04:30am 7.5 4.4 7.4 99 0.0 NNW 13 20 7 11 1017.1 1016.3 0.0
24/04:00am 7.2 5.4 7.1 99 0.0 WNW 6 7 3 4 1017.3 1016.5 0.0
24/03:30am 7.4 6.8 7.3 99 0.0 CALM 0 0 0 0 1017.6 1016.9 0.0
24/03:00am 7.2 6.5 7.1 99 0.0 CALM 0 0 0 0 1017.7 1017.0 0.0
24/02:30am 7.0 6.2 6.7 98 0.1 CALM 0 0 0 0 1017.7 1017.0 0.0
24/02:00am 7.2 5.7 6.9 98 0.1 ESE 4 6 2 3 1017.9 1017.2 0.0
24/01:30am 7.4 6.7 7.0 97 0.2 CALM 0 0 0 0 1018.1 1017.3 0.0
24/01:00am 7.6 7.0 7.2 97 0.2 CALM 0 0 0 0 1018.1 1017.3 0.0
24/12:30am 7.5 6.4 6.8 95 0.3 ESE 2 6 1 3 1018.5 1017.7 0.0
24/12:00am 8.2 7.6 7.4 95 0.4 CALM 0 0 0 0 1018.7 1018.0 0.0
 
Date/Time
EDT
Temp
°C
App
Temp
°C
Dew
Point
°C
Rel
Hum
%
Delta-T
°C
Wind Press
QNH
hPa
Press
MSL
hPa
Rain since
9am
mm
Dir  Spd
km/h
Gust
km/h
Spd
kts
Gust
kts
23/11:30pm 9.1 8.7 8.2 94 0.5 CALM 0 6 0 3 1018.7 1018.0 0.0
23/11:00pm 9.6 7.2 8.5 93 0.6 SE 11 15 6 8 1018.8 1018.1 0.0
23/10:30pm 9.8 7.3 8.4 91 0.7 SSE 11 17 6 9 1018.9 1018.2 0.0
23/10:00pm 10.3 7.8 8.4 88 1.0 SE 11 19 6 10 1018.9 1018.2 0.0
23/09:30pm 11.2 8.8 8.8 85 1.2 SSE 11 17 6 9 1018.7 1018.0 0.0
23/09:00pm 12.1 9.0 8.9 81 1.7 SSE 15 22 8 12 1018.5 1017.7 0.0
23/08:30pm 12.3 10.3 8.8 79 1.8 SSE 9 15 5 8 1018.1 1017.3 0.0
23/08:00pm 13.2 10.9 9.1 76 2.1 S 11 20 6 11 1017.7 1017.0 0.0
23/07:30pm 14.1 12.2 8.9 71 2.7 S 9 15 5 8 1017.3 1016.5 0.0
23/07:00pm 15.3 11.9 9.0 66 3.3 SE 17 24 9 13 1016.6 1015.8 0.0
23/06:30pm 17.0 13.0 8.4 57 4.6 SE 19 30 10 16 1016.1 1015.4 0.0
23/06:00pm 20.6 17.4 8.3 45 6.6 N 15 26 8 14 1015.6 1014.8 0.0
23/05:30pm 21.2 17.7 5.6 36 8.0 N 13 22 7 12 1015.4 1014.6 0.0
23/05:00pm 21.4 17.3 6.1 37 8.0 N 17 26 9 14 1015.4 1014.6 0.0
23/04:30pm 20.8 16.4 4.8 35 8.1 N 17 24 9 13 1015.5 1014.7 0.0
23/04:00pm 21.3 16.8 4.4 33 8.5 N 17 26 9 14 1015.5 1014.7 0.0
23/03:30pm 21.2 17.4 3.9 32 8.6 N 13 20 7 11 1015.7 1014.9 0.0
23/03:00pm 21.2 18.0 6.7 39 7.6 NNE 13 20 7 11 1016.0 1015.2 0.0
23/02:30pm 20.6 16.7 3.3 32 8.5 NNW 13 19 7 10 1016.2 1015.5 0.0
23/02:00pm 20.1 15.8 3.3 33 8.2 N 15 20 8 11 1016.4 1015.7 0.0
23/01:30pm 19.7 15.6 2.1 31 8.4 N 13 17 7 9 1016.9 1016.1 0.0
23/01:00pm 18.8 14.2 1.8 32 8.0 N 15 22 8 12 1017.1 1016.3 0.0
23/12:30pm 18.3 14.7 3.0 36 7.4 N 11 19 6 10 1017.4 1016.7 0.0
23/12:00pm 17.3 14.3 6.2 48 5.6 NNE 11 19 6 10 1017.9 1017.2 0.0
23/11:30am 16.4 13.0 6.0 50 5.2 NNE 13 19 7 10 1018.4 1017.6 0.0
23/11:00am 14.3 10.8 7.4 63 3.5 NNW 15 19 8 10 1018.7 1018.0 0.0
23/10:30am 12.6 9.1 7.1 69 2.8 NNW 15 20 8 11 1018.9 1018.2 0.0
23/10:00am 10.9 7.5 6.1 72 2.3 NNW 13 19 7 10 1019.0 1018.3 0.0
23/09:30am 9.7 7.1 6.1 78 1.7 N 9 13 5 7 1018.9 1018.2 0.0
23/09:00am 8.4 5.7 5.5 82 1.4 NNW 9 15 5 8 1018.9 1018.2 0.0
23/08:30am 5.8 3.0 5.2 96 0.3 N 9 13 5 7 1018.9 1018.2 0.0
23/08:00am 5.0 2.1 4.7 98 0.1 N 9 13 5 7 1018.8 1018.1 0.0
23/07:30am 4.5 2.5 4.2 98 0.1 NW 4 11 2 6 1018.6 1017.8 0.0
23/07:00am 4.6 3.0 4.3 98 0.1 WSW 2 7 1 4 1018.2 1017.4 0.0
23/06:30am 4.3 3.0 4.0 98 0.1 CALM 0 0 0 0 1018.1 1017.3 0.0
23/06:00am 4.0 2.6 3.7 98 0.1 CALM 0 0 0 0 1017.8 1017.1 0.0
23/05:30am 3.3 1.8 2.9 97 0.2 CALM 0 0 0 0 1017.7 1017.0 0.0
23/05:00am 3.2 1.6 2.5 95 0.3 CALM 0 0 0 0 1017.5 1016.8 0.0
23/04:30am 4.0 2.6 3.4 96 0.3 CALM 0 0 0 0 1017.4 1016.7 0.0
23/04:00am 4.4 3.0 3.7 95 0.3 CALM 0 0 0 0 1017.5 1016.8 0.0
23/03:30am 5.4 4.2 4.8 96 0.3 CALM 0 6 0 3 1017.5 1016.8 0.0
23/03:00am 5.1 3.9 4.4 95 0.3 CALM 0 0 0 0 1017.6 1016.9 0.0
23/02:30am 5.5 4.3 4.6 94 0.4 CALM 0 0 0 0 1017.8 1017.1 0.0
23/02:00am 6.2 3.9 5.0 92 0.5 WSW 6 11 3 6 1017.9 1017.2 0.0
23/01:30am 7.2 5.2 6.1 93 0.5 SW 6 9 3 5 1017.9 1017.2 0.0
23/01:00am 7.1 5.2 6.5 96 0.3 SSW 6 7 3 4 1018.2 1017.4 0.0
23/12:30am 7.7 7.0 7.1 96 0.3 CALM 0 2 0 1 1018.3 1017.5 0.0
23/12:00am 7.7 7.0 7.0 95 0.3 CALM 0 6 0 3 1018.3 1017.5 0.0
 
Date/Time
EDT
Temp
°C
App
Temp
°C
Dew
Point
°C
Rel
Hum
%
Delta-T
°C
Wind Press
QNH
hPa
Press
MSL
hPa
Rain since
9am
mm
Dir  Spd
km/h
Gust
km/h
Spd
kts
Gust
kts
22/11:30pm 8.2 6.8 7.4 95 0.4 S 4 9 2 5 1018.2 1017.4 0.0
22/11:00pm 8.5 7.9 7.4 93 0.5 CALM 0 6 0 3 1018.1 1017.3 0.0
22/10:30pm 8.8 6.5 7.6 92 0.6 SE 9 15 5 8 1017.8 1017.1 0.0
22/10:00pm 9.4 7.2 7.8 90 0.8 SE 9 15 5 8 1017.7 1017.0 0.0
22/09:30pm 9.8 7.3 8.1 89 0.9 SE 11 19 6 10 1017.6 1016.9 0.0
22/09:00pm 10.3 7.4 8.1 86 1.1 SSE 13 19 7 10 1017.2 1016.4 0.0
22/08:30pm 10.7 7.8 8.1 84 1.3 SE 13 19 7 10 1016.9 1016.1 0.0
22/08:00pm 11.1 8.2 8.0 81 1.6 SE 13 17 7 9 1016.3 1015.6 0.0
22/07:30pm 11.7 8.6 7.2 74 2.2 SE 13 19 7 10 1015.9 1015.1 0.0
22/07:00pm 13.3 9.7 6.9 65 3.2 SE 15 24 8 13 1015.6 1014.8 0.0
22/06:30pm 14.9 12.2 5.7 54 4.6 S 9 15 5 8 1015.3 1014.5 0.0
22/06:00pm 16.7 13.7 5.9 49 5.4 SSE 11 22 6 12 1015.1 1014.3 0.0
22/05:30pm 16.6 13.2 5.9 49 5.4 SSE 13 24 7 13 1014.7 1013.9 0.0
22/05:00pm 15.7 12.2 5.6 51 5.0 SSE 13 26 7 14 1014.8 1014.0 0.0
22/04:30pm 15.7 11.2 4.1 46 5.6 S 17 30 9 16 1014.6 1013.8 0.0
22/04:00pm 14.8 10.1 3.3 46 5.4 SSW 17 33 9 18 1014.7 1013.9 0.0
22/03:30pm 16.0 12.3 6.4 53 4.9 S 15 28 8 15 1015.0 1014.2 0.0
22/03:00pm 15.0 11.2 5.8 54 4.6 SSE 15 28 8 15 1015.3 1014.5 0.0
22/02:30pm 15.0 10.9 6.3 56 4.4 S 17 26 9 14 1015.7 1014.9 0.0
22/02:00pm 14.6 10.7 6.9 60 3.9 SSE 17 26 9 14 1016.1 1015.4 0.0
22/01:30pm 12.9 9.1 5.8 62 3.5 SSE 15 24 8 13 1016.3 1015.6 0.0
22/01:00pm 12.1 7.9 5.5 64 3.2 S 17 32 9 17 1016.4 1015.7 0.0
22/12:30pm 12.6 8.3 5.3 61 3.5 S 17 30 9 16 1016.3 1015.6 0.0
22/12:00pm 13.6 9.7 5.5 58 4.0 SSE 15 24 8 13 1016.4 1015.7 0.0
22/11:30am 10.3 6.6 4.5 67 2.7 S 13 24 7 13 1017.1 1016.3 0.0
22/11:00am 11.7 7.3 4.9 63 3.2 SSW 17 32 9 17 1017.2 1016.4 0.0
22/10:30am 11.7 7.7 4.7 62 3.3 S 15 28 8 15 1017.1 1016.3 0.0
22/10:00am 10.8 6.7 4.5 65 2.9 SSW 15 28 8 15 1017.0 1016.2 0.0
22/09:30am 10.9 7.7 5.2 68 2.7 S 11 19 6 10 1016.8 1016.0 0.0
22/09:00am 9.4 7.8 4.6 72 2.2 NNW 2 7 1 4 1016.7 1015.9 0.0
22/08:30am 7.1 5.1 4.2 82 1.3 NW 4 7 2 4 1016.8 1016.0 0.0
22/08:00am 6.6 5.4 4.8 88 0.8 CALM 0 0 0 0 1016.8 1016.0 0.0
22/07:30am 5.9 4.7 4.4 90 0.7 CALM 0 0 0 0 1016.6 1015.8 0.0
22/07:00am 5.1 3.8 4.2 94 0.4 CALM 0 0 0 0 1016.4 1015.7 0.0
22/06:30am 4.5 2.0 3.6 94 0.4 WSW 6 9 3 5 1016.4 1015.7 0.0
22/06:00am 4.3 2.1 3.1 92 0.5 NNW 4 7 2 4 1016.1 1015.4 0.0
22/05:30am 4.5 2.3 3.2 91 0.6 W 4 7 2 4 1016.3 1015.6 0.0
22/05:00am 5.4 3.2 3.6 88 0.8 S 4 9 2 5 1016.4 1015.7 0.0
22/04:30am 5.2 2.7 3.9 91 0.6 S 6 9 3 5 1016.7 1015.9 0.0
22/04:00am 4.5 3.1 3.6 94 0.4 CALM 0 0 0 0 1016.7 1015.9 0.0
22/03:30am 3.5 0.5 2.2 91 0.5 SSE 7 7 4 4 1016.8 1016.0 0.0
22/03:00am 4.0 1.2 2.2 88 0.7 S 6 7 3 4 1016.9 1016.1 0.0
22/02:30am 5.1 3.7 3.3 88 0.8 CALM 0 0 0 0 1017.0 1016.2 0.0
22/02:00am 5.9 3.1 3.4 84 1.1 SE 7 11 4 6 1017.4 1016.7 0.0
22/01:30am 6.2 3.6 3.0 80 1.4 SE 6 11 3 6 1017.8 1017.1 0.0
22/01:00am 8.0 4.6 4.2 77 1.7 SE 11 19 6 10 1018.3 1017.5 0.0
22/12:30am 8.2 4.4 4.0 75 1.9 SE 13 19 7 10 1018.5 1017.7 0.0
22/12:00am 8.4 5.0 4.2 75 1.9 SE 11 17 6 9 1018.7 1018.0 0.0
 
Date/Time
EDT
Temp
°C
App
Temp
°C
Dew
Point
°C
Rel
Hum
%
Delta-T
°C
Wind Press
QNH
hPa
Press
MSL
hPa
Rain since
9am
mm
Dir  Spd
km/h
Gust
km/h
Spd
kts
Gust
kts
21/11:30pm 8.6 4.9 4.2 74 2.0 SE 13 22 7 12 1018.8 1018.1 0.0
21/11:00pm 8.8 4.7 4.6 75 1.9 SE 15 20 8 11 1019.0 1018.3 0.0
21/10:30pm 9.0 5.0 5.0 76 1.9 SE 15 22 8 12 1019.1 1018.4 0.0
21/10:00pm 9.2 5.6 5.2 76 1.9 SE 13 20 7 11 1019.2 1018.5 0.0
21/09:30pm 9.5 6.0 5.3 75 2.0 SE 13 20 7 11 1019.2 1018.5 0.0
21/09:00pm 9.6 5.6 5.0 73 2.2 SE 15 26 8 14 1019.3 1018.6 0.0
21/08:30pm 9.8 5.5 5.2 73 2.2 SE 17 24 9 13 1019.2 1018.5 0.0
21/08:00pm 10.1 5.2 5.1 71 2.4 SE 20 30 11 16 1019.0 1018.3 0.0
21/07:30pm 10.4 5.1 5.2 70 2.5 SE 22 37 12 20 1018.9 1018.2 0.0
21/07:00pm 11.0 6.3 5.1 67 2.8 SE 19 35 10 19 1018.7 1018.0 0.0
21/06:30pm 11.9 7.2 5.1 63 3.3 SE 19 28 10 15 1018.4 1017.6 0.0
21/06:00pm 13.0 9.1 5.4 60 3.7 SE 15 30 8 16 1018.3 1017.5 0.0
21/05:30pm 13.7 9.4 5.1 56 4.2 SE 17 28 9 15 1018.2 1017.4 0.0
21/05:00pm 14.4 9.6 4.4 51 4.8 SE 19 30 10 16 1018.3 1017.5 0.0
21/04:30pm 16.0 11.6 5.0 48 5.4 SE 17 28 9 15 1018.5 1017.7 0.0
21/04:00pm 16.0 11.2 4.4 46 5.6 SE 19 28 10 15 1018.6 1017.8 0.0
21/03:30pm 16.5 12.1 4.9 46 5.7 SE 17 28 9 15 1018.8 1018.1 0.0
21/03:00pm 17.1 13.1 5.1 45 5.9 SE 15 22 8 12 1019.1 1018.4 0.0
21/02:30pm 16.9 13.3 4.9 45 5.9 ESE 13 20 7 11 1019.5 1018.8 0.0
21/02:00pm 15.9 12.3 3.0 42 6.1 SE 11 17 6 9 1020.1 1019.4 0.0
21/01:30pm 15.9 12.5 4.0 45 5.7 SE 11 20 6 11 1020.4 1019.7 0.0
21/01:00pm 15.1 12.3 5.0 51 4.9 SE 9 15 5 8 1020.8 1020.1 0.0
21/12:30pm 13.6 10.9 5.5 58 4.0 SE 9 17 5 9 1021.6 1020.9 0.0
21/12:00pm 12.1 9.3 3.1 54 4.1 SE 7 9 4 5 1022.2 1021.5 0.0
21/11:30am 11.4 8.1 2.4 54 4.0 E 9 15 5 8 1023.0 1022.3 0.0
21/11:00am 10.3 7.5 2.2 57 3.6 E 6 9 3 5 1023.3 1022.6 0.0
21/10:30am 9.0 5.6 2.1 62 3.0 SW 9 13 5 7 1023.7 1023.1 0.0
21/10:00am 8.5 5.5 2.3 65 2.7 W 7 13 4 7 1024.0 1023.4 0.0

Other Formats:

Comma delimited format used in spreadsheet applications
http://www.bom.gov.au/fwo/IDV60801/IDV60801.94908.axf

JavaScript Object Notation format (JSON) in row-major order
http://www.bom.gov.au/fwo/IDV60801/IDV60801.94908.json